createdAt,value
2019-04-21T00:00:39.802Z,50.30
2019-04-21T00:03:21.429Z,50.38
2019-04-21T00:06:08.889Z,50.77
2019-04-21T00:08:45.869Z,51.25
2019-04-21T00:11:22.514Z,51.40
2019-04-21T00:13:53.835Z,51.11
2019-04-21T00:16:23.672Z,51.35
2019-04-21T00:19:28.448Z,51.63
2019-04-21T00:22:11.662Z,51.69
2019-04-21T00:24:53.447Z,51.96
2019-04-21T00:27:28.592Z,52.38
2019-04-21T00:30:05.936Z,52.82
2019-04-21T00:32:33.412Z,52.93
2019-04-21T00:35:00.948Z,53.48
2019-04-21T00:37:58.851Z,53.94
2019-04-21T00:40:35.250Z,54.06
2019-04-21T00:43:03.742Z,54.30
2019-04-21T00:45:33.697Z,54.35
2019-04-21T00:48:25.438Z,54.53
2019-04-21T00:51:15.003Z,54.89
2019-04-21T00:53:51.874Z,55.10
2019-04-21T00:56:34.051Z,55.08
2019-04-21T00:59:02.396Z,55.15
2019-04-21T01:01:37.937Z,55.30
2019-04-21T01:04:09.754Z,55.56
2019-04-21T01:06:54.477Z,55.75
2019-04-21T01:09:29.004Z,55.93
2019-04-21T01:12:09.891Z,56.25
2019-04-21T01:14:49.699Z,56.57
2019-04-21T01:17:22.858Z,56.53
2019-04-21T01:19:51.202Z,56.82
2019-04-21T01:22:11.983Z,57.30
2019-04-21T01:24:48.731Z,57.45
2019-04-21T01:27:31.948Z,57.41
2019-04-21T01:30:16.379Z,57.22
2019-04-21T01:32:55.768Z,57.20
2019-04-21T01:35:25.677Z,57.24
2019-04-21T01:38:02.963Z,57.32
2019-04-21T01:40:43.285Z,57.60
2019-04-21T01:43:17.656Z,57.59
2019-04-21T01:45:48.743Z,57.84
2019-04-21T01:48:24.722Z,57.69
2019-04-21T01:51:05.311Z,57.88
2019-04-21T01:53:59.563Z,57.90
2019-04-21T01:56:51.233Z,58.00
2019-04-21T01:59:18.470Z,58.18
2019-04-21T02:02:13.890Z,58.12
2019-04-21T02:04:54.268Z,58.22
2019-04-21T02:07:20.608Z,58.50
2019-04-21T02:10:03.383Z,58.68
2019-04-21T02:12:34.502Z,58.81
2019-04-21T02:15:11.339Z,58.64
2019-04-21T02:17:49.843Z,59.02
2019-04-21T02:20:16.589Z,59.04
2019-04-21T02:23:10.035Z,58.81
2019-04-21T02:25:40.043Z,58.90
2019-04-21T02:28:11.413Z,59.11
2019-04-21T02:36:27.239Z,59.83
2019-04-21T02:38:50.314Z,59.87
2019-04-21T02:41:15.753Z,60.16
2019-04-21T02:43:54.384Z,60.33
2019-04-21T02:46:35.885Z,60.39
2019-04-21T02:49:04.151Z,60.44
2019-04-21T02:51:46.182Z,60.52
2019-04-21T02:54:45.853Z,60.35
2019-04-21T02:56:52.943Z,59.94
2019-04-21T02:59:50.272Z,59.74
2019-04-21T03:02:35.013Z,59.34
2019-04-21T03:10:53.260Z,59.08
2019-04-21T03:13:29.147Z,58.94
2019-04-21T03:16:11.865Z,59.05
2019-04-21T03:18:42.048Z,58.93
2019-04-21T03:21:23.985Z,58.94
2019-04-21T03:23:59.676Z,58.74
2019-04-21T03:26:27.426Z,58.66
2019-04-21T03:32:05.659Z,58.97
2019-04-21T03:39:35.078Z,59.15
2019-04-21T03:44:37.385Z,59.30
2019-04-21T03:49:59.883Z,59.09
2019-04-21T03:55:51.436Z,60.30
2019-04-21T04:01:17.957Z,60.06
2019-04-21T04:04:21.975Z,60.24
2019-04-21T04:07:10.953Z,60.32
2019-04-21T04:09:54.050Z,60.49
2019-04-21T04:12:19.290Z,60.69
2019-04-21T04:17:38.006Z,61.17
2019-04-21T04:20:20.487Z,61.31
2019-04-21T04:22:48.166Z,61.46
2019-04-21T04:25:21.409Z,61.52
2019-04-21T04:30:34.030Z,63.76
2019-04-21T04:33:12.465Z,51.85
2019-04-21T04:35:52.856Z,46.02
2019-04-21T04:38:33.766Z,47.75
2019-04-21T04:41:12.101Z,49.38
2019-04-21T04:43:37.200Z,50.68
2019-04-21T04:46:33.459Z,51.77
2019-04-21T04:48:57.287Z,52.97
2019-04-21T04:51:37.061Z,53.67
2019-04-21T04:53:58.707Z,54.51
2019-04-21T04:56:38.814Z,55.11
2019-04-21T05:04:30.637Z,56.19
2019-04-21T05:09:41.385Z,56.11
2019-04-21T05:12:17.558Z,55.97
2019-04-21T05:14:55.098Z,55.81
2019-04-21T05:22:53.262Z,56.65
2019-04-21T05:25:25.049Z,56.60
2019-04-21T05:27:56.919Z,56.81
2019-04-21T05:30:48.953Z,56.74
2019-04-21T05:33:38.387Z,56.51
2019-04-21T05:36:27.892Z,56.62
2019-04-21T05:39:14.770Z,56.62
2019-04-21T05:41:47.015Z,56.01
2019-04-21T05:44:44.380Z,55.68
2019-04-21T05:47:23.708Z,55.09
2019-04-21T05:49:55.983Z,55.30
2019-04-21T05:52:29.567Z,54.90
2019-04-21T05:55:10.975Z,53.28
2019-04-21T05:57:46.686Z,52.38
2019-04-21T06:00:23.545Z,51.73
2019-04-21T06:03:00.689Z,50.71
2019-04-21T06:05:44.605Z,51.13
2019-04-21T06:08:16.006Z,49.72
2019-04-21T06:10:49.514Z,48.89
2019-04-21T06:13:27.507Z,48.67
2019-04-21T06:16:03.483Z,48.12
2019-04-21T06:18:41.334Z,46.77
2019-04-21T06:21:07.222Z,47.08
2019-04-21T06:23:40.185Z,46.40
2019-04-21T06:26:44.936Z,45.49
2019-04-21T06:29:04.003Z,45.36
2019-04-21T06:34:04.729Z,44.32
2019-04-21T06:36:45.069Z,44.12
2019-04-21T06:41:58.620Z,41.75
2019-04-21T06:44:33.603Z,41.83
2019-04-21T06:47:05.967Z,40.95
2019-04-21T06:49:40.125Z,40.96
2019-04-21T06:55:00.106Z,40.34
2019-04-21T06:57:28.970Z,39.94
2019-04-21T07:00:04.200Z,40.62
2019-04-21T07:02:45.055Z,38.85
2019-04-21T07:05:13.280Z,38.12
2019-04-21T07:07:55.188Z,39.66
2019-04-21T07:10:26.046Z,38.89
2019-04-21T07:12:51.617Z,37.99
2019-04-21T07:15:35.215Z,37.71
2019-04-21T07:18:12.422Z,37.80
2019-04-21T07:20:50.555Z,36.55
2019-04-21T07:23:28.530Z,38.03
2019-04-21T07:26:00.979Z,36.26
2019-04-21T07:28:36.320Z,37.54
2019-04-21T07:31:14.139Z,36.64
2019-04-21T07:33:53.467Z,36.45
2019-04-21T07:36:21.859Z,36.31
2019-04-21T07:38:49.878Z,35.90
2019-04-21T07:41:20.046Z,35.35
2019-04-21T07:43:57.198Z,35.71
2019-04-21T07:46:30.000Z,35.27
2019-04-21T07:49:19.138Z,34.89
2019-04-21T07:52:05.698Z,36.07
2019-04-21T07:54:37.355Z,34.87
2019-04-21T07:56:58.968Z,34.69
2019-04-21T07:59:48.520Z,34.56
2019-04-21T08:02:18.886Z,35.11
2019-04-21T08:07:30.746Z,34.84
2019-04-21T08:10:00.060Z,34.49
2019-04-21T08:12:30.612Z,34.40
2019-04-21T08:15:18.116Z,34.02
2019-04-21T08:17:49.203Z,35.22
2019-04-21T08:20:18.487Z,34.81
2019-04-21T08:23:02.521Z,34.20
2019-04-21T08:25:53.336Z,34.96
2019-04-21T08:28:07.490Z,34.94
2019-04-21T08:30:42.991Z,34.97
2019-04-21T08:33:26.246Z,34.15
2019-04-21T08:38:31.470Z,34.15
2019-04-21T08:41:11.081Z,34.36
2019-04-21T08:44:01.673Z,32.90
2019-04-21T08:46:13.842Z,33.92
2019-04-21T08:48:52.731Z,33.90
2019-04-21T08:51:30.223Z,32.02
2019-04-21T08:54:02.395Z,32.44
2019-04-21T08:56:48.308Z,31.80
2019-04-21T08:59:43.784Z,32.50
2019-04-21T09:02:29.461Z,31.37
2019-04-21T09:05:01.494Z,31.76
2019-04-21T09:07:41.417Z,30.93
2019-04-21T09:10:09.432Z,31.62
2019-04-21T09:12:43.129Z,32.51
2019-04-21T09:15:21.692Z,31.76
2019-04-21T09:17:44.788Z,31.44
2019-04-21T09:20:32.855Z,31.39
2019-04-21T09:23:06.437Z,31.62
2019-04-21T09:25:40.734Z,32.74
2019-04-21T09:28:11.108Z,33.34
2019-04-21T09:30:39.483Z,32.91
2019-04-21T09:33:05.650Z,32.08
2019-04-21T09:35:47.378Z,31.72
2019-04-21T09:38:26.250Z,30.55
2019-04-21T09:40:54.004Z,31.60
2019-04-21T09:43:35.766Z,30.68
2019-04-21T09:46:04.273Z,31.56
2019-04-21T09:48:51.356Z,31.63
2019-04-21T09:51:13.111Z,31.92
2019-04-21T09:53:54.572Z,31.56
2019-04-21T09:56:32.452Z,31.85
2019-04-21T09:59:09.143Z,31.54
2019-04-21T10:01:57.602Z,29.91
2019-04-21T10:04:20.807Z,30.62
2019-04-21T10:06:54.489Z,31.02
2019-04-21T10:09:47.897Z,29.16
2019-04-21T10:12:25.650Z,29.68
2019-04-21T10:15:01.900Z,28.26
2019-04-21T10:17:41.670Z,29.12
2019-04-21T10:20:17.037Z,28.73
2019-04-21T10:22:55.288Z,28.74
2019-04-21T10:25:30.712Z,29.34
2019-04-21T10:28:05.148Z,28.56
2019-04-21T10:30:38.765Z,28.67
2019-04-21T10:33:12.542Z,28.70
2019-04-21T10:35:46.778Z,28.88
2019-04-21T10:38:33.206Z,27.89
2019-04-21T10:40:59.185Z,28.94
2019-04-21T10:43:33.448Z,28.41
2019-04-21T10:46:08.677Z,28.63
2019-04-21T10:48:43.166Z,28.60
2019-04-21T10:51:17.159Z,29.45
2019-04-21T10:53:52.846Z,28.85
2019-04-21T10:56:34.459Z,28.42
2019-04-21T10:59:04.511Z,27.38
2019-04-21T11:01:38.982Z,27.91
2019-04-21T11:04:35.400Z,28.40
2019-04-21T11:07:31.184Z,26.68
2019-04-21T11:10:02.506Z,28.20
2019-04-21T11:12:39.258Z,27.93
2019-04-21T11:15:12.940Z,27.25
2019-04-21T11:17:52.365Z,27.71
2019-04-21T11:20:28.757Z,28.67
2019-04-21T11:23:02.116Z,27.57
2019-04-21T11:25:36.290Z,28.56
2019-04-21T11:28:11.101Z,29.15
2019-04-21T11:30:44.701Z,27.06
2019-04-21T11:33:19.378Z,26.85
2019-04-21T11:35:53.265Z,27.12
2019-04-21T11:39:02.408Z,26.96
2019-04-21T11:41:21.647Z,26.34
2019-04-21T11:43:55.077Z,27.00
2019-04-21T11:46:28.664Z,26.88
2019-04-21T11:49:02.435Z,27.63
2019-04-21T11:51:37.427Z,26.56
2019-04-21T11:54:11.022Z,25.95
2019-04-21T11:56:45.129Z,25.76
2019-04-21T11:59:19.618Z,27.65
2019-04-21T12:01:57.331Z,26.59
2019-04-21T12:04:43.425Z,26.06
2019-04-21T12:07:37.613Z,26.35
2019-04-21T12:10:43.008Z,26.08
2019-04-21T12:13:22.418Z,26.04
2019-04-21T12:15:57.141Z,25.72
2019-04-21T12:18:34.484Z,26.38
2019-04-21T12:21:07.839Z,26.63
2019-04-21T12:23:50.651Z,26.76
2019-04-21T12:26:24.431Z,27.48
2019-04-21T12:29:01.821Z,26.65
2019-04-21T12:31:57.250Z,26.61
2019-04-21T12:34:32.389Z,27.87
2019-04-21T12:37:08.854Z,26.06
2019-04-21T12:39:43.066Z,26.88
2019-04-21T12:42:16.768Z,27.49
2019-04-21T12:44:51.415Z,27.35
2019-04-21T12:47:32.113Z,27.10
2019-04-21T12:50:10.928Z,27.01
2019-04-21T12:52:45.321Z,26.82
2019-04-21T12:55:31.880Z,25.50
2019-04-21T12:58:05.964Z,26.48
2019-04-21T13:00:40.935Z,27.48
2019-04-21T13:03:15.888Z,26.05
2019-04-21T13:05:50.138Z,25.87
2019-04-21T13:08:23.373Z,24.53
2019-04-21T13:10:58.030Z,25.23
2019-04-21T13:13:32.184Z,25.76
2019-04-21T13:16:05.612Z,25.71
2019-04-21T13:18:39.603Z,25.14
2019-04-21T13:21:13.965Z,24.82
2019-04-21T13:23:47.287Z,27.58
2019-04-21T13:26:29.588Z,26.12
2019-04-21T13:28:56.435Z,26.34
2019-04-21T13:31:30.036Z,25.36
2019-04-21T13:34:04.171Z,25.93
2019-04-21T13:36:41.425Z,25.55
2019-04-21T13:39:57.048Z,28.60
2019-04-21T13:42:19.828Z,28.59
2019-04-21T13:44:44.641Z,30.87
2019-04-21T13:47:18.634Z,26.38
2019-04-21T13:49:53.162Z,26.50
2019-04-21T13:52:28.916Z,24.97
2019-04-21T13:55:03.302Z,24.42
2019-04-21T13:57:38.797Z,24.97
2019-04-21T14:00:13.200Z,27.51
2019-04-21T14:02:46.980Z,26.05
2019-04-21T14:05:22.382Z,25.85
2019-04-21T14:07:56.483Z,27.09
2019-04-21T14:10:31.479Z,25.44
2019-04-21T14:13:04.950Z,26.23
2019-04-21T14:15:39.864Z,26.63
2019-04-21T14:18:13.170Z,25.55
2019-04-21T14:20:46.920Z,26.31
2019-04-21T14:23:29.933Z,26.79
2019-04-21T14:25:55.723Z,26.07
2019-04-21T14:28:30.195Z,26.85
2019-04-21T14:31:04.272Z,25.18
2019-04-21T14:33:38.249Z,25.96
2019-04-21T14:36:12.780Z,25.03
2019-04-21T14:38:47.043Z,26.21
2019-04-21T14:41:20.116Z,27.13
2019-04-21T14:43:53.308Z,25.81
2019-04-21T14:46:33.119Z,26.25
2019-04-21T14:49:33.137Z,26.16
2019-04-21T14:52:30.865Z,26.91
2019-04-21T14:55:18.497Z,26.52
2019-04-21T14:57:51.697Z,25.94
2019-04-21T15:00:31.273Z,26.27
2019-04-21T15:03:05.592Z,26.00
2019-04-21T15:05:39.779Z,25.60
2019-04-21T15:08:13.138Z,26.08
2019-04-21T15:10:47.174Z,25.95
2019-04-21T15:13:21.827Z,26.10
2019-04-21T15:15:56.158Z,26.65
2019-04-21T15:18:30.591Z,26.13
2019-04-21T15:21:04.012Z,26.03
2019-04-21T15:23:38.226Z,27.08
2019-04-21T15:26:12.301Z,26.21
2019-04-21T15:28:46.795Z,26.83
2019-04-21T15:31:29.848Z,27.00
2019-04-21T15:33:54.975Z,26.71
2019-04-21T15:36:31.726Z,26.58
2019-04-21T15:39:03.626Z,27.58
2019-04-21T15:41:37.031Z,27.09
2019-04-21T15:44:10.252Z,26.75
2019-04-21T15:46:43.976Z,26.94
2019-04-21T15:49:18.167Z,26.73
2019-04-21T15:51:51.904Z,27.07
2019-04-21T15:54:25.225Z,26.70
2019-04-21T15:57:08.979Z,26.64
2019-04-21T16:00:04.682Z,27.06
2019-04-21T16:02:42.637Z,27.16
2019-04-21T16:05:17.206Z,27.00
2019-04-21T16:07:51.986Z,27.00
2019-04-21T16:10:34.403Z,27.10
2019-04-21T16:13:01.565Z,26.66
2019-04-21T16:15:34.753Z,27.06
2019-04-21T16:18:08.033Z,26.88
2019-04-21T16:20:41.871Z,27.16
2019-04-21T16:23:18.241Z,27.40
2019-04-21T16:25:52.731Z,26.86
2019-04-21T16:28:27.008Z,27.17
2019-04-21T16:31:00.534Z,27.01
2019-04-21T16:33:34.956Z,27.62
2019-04-21T16:36:10.336Z,27.71
2019-04-21T16:38:43.787Z,27.77
2019-04-21T16:41:18.241Z,27.89
2019-04-21T16:43:53.202Z,28.08
2019-04-21T16:46:27.461Z,27.82
2019-04-21T16:49:01.994Z,27.94
2019-04-21T16:51:36.057Z,28.12
2019-04-21T16:54:24.008Z,28.52
2019-04-21T16:57:15.553Z,28.70
2019-04-21T16:59:52.734Z,28.68
2019-04-21T17:02:26.280Z,28.61
2019-04-21T17:05:00.444Z,28.70
2019-04-21T17:07:33.744Z,29.30
2019-04-21T17:10:08.559Z,28.91
2019-04-21T17:12:43.222Z,29.28
2019-04-21T17:15:32.398Z,29.47
2019-04-21T17:18:26.820Z,33.84
2019-04-21T17:21:19.451Z,30.42
2019-04-21T17:24:28.612Z,30.40
2019-04-21T17:27:07.138Z,30.40
2019-04-21T17:29:43.116Z,30.56
2019-04-21T17:32:20.459Z,31.04
2019-04-21T17:34:54.477Z,31.44
2019-04-21T17:37:29.243Z,31.87
2019-04-21T17:40:05.319Z,32.56
2019-04-21T17:42:46.444Z,33.00
2019-04-21T17:45:17.354Z,33.42
2019-04-21T17:48:15.900Z,34.07
2019-04-21T17:51:07.590Z,33.94
2019-04-21T17:54:02.588Z,33.92
2019-04-21T17:56:59.571Z,33.38
2019-04-21T17:59:41.463Z,33.28
2019-04-21T18:02:03.983Z,33.65
2019-04-21T18:04:41.539Z,34.05
2019-04-21T18:07:27.539Z,34.74
2019-04-21T18:10:05.006Z,34.54
2019-04-21T18:12:36.433Z,34.15
2019-04-21T18:15:16.574Z,34.50
2019-04-21T18:17:34.267Z,34.77
2019-04-21T18:20:08.243Z,35.69
2019-04-21T18:23:17.640Z,35.48
2019-04-21T18:25:54.862Z,35.54
2019-04-21T18:28:21.325Z,36.02
2019-04-21T18:31:04.709Z,36.31
2019-04-21T18:33:43.907Z,36.19
2019-04-21T18:36:29.068Z,36.22
2019-04-21T18:39:40.967Z,35.76
2019-04-21T18:42:27.539Z,34.66
2019-04-21T18:48:02.353Z,33.22
2019-04-21T18:50:45.998Z,32.56
2019-04-21T18:53:36.412Z,32.89
2019-04-21T18:56:00.344Z,32.72
2019-04-21T18:58:28.895Z,32.85
2019-04-21T19:01:07.329Z,33.05
2019-04-21T19:03:43.082Z,33.33
2019-04-21T19:06:17.381Z,33.62
2019-04-21T19:09:07.653Z,34.16
2019-04-21T19:11:35.916Z,33.89
2019-04-21T19:14:32.187Z,34.12
2019-04-21T19:17:10.747Z,34.25
2019-04-21T19:19:46.482Z,34.64
2019-04-21T19:22:20.434Z,33.20
2019-04-21T19:24:59.416Z,33.50
2019-04-21T19:27:22.690Z,33.26
2019-04-21T19:30:05.717Z,33.32
2019-04-21T19:32:29.045Z,33.42
2019-04-21T19:34:57.044Z,33.10
2019-04-21T19:37:26.832Z,32.68
2019-04-21T19:40:12.115Z,32.79
2019-04-21T19:42:45.672Z,32.64
2019-04-21T19:45:22.470Z,32.90
2019-04-21T19:48:08.206Z,32.73
2019-04-21T19:50:42.490Z,32.97
2019-04-21T19:53:20.022Z,32.54
2019-04-21T19:55:40.470Z,32.61
2019-04-21T19:58:14.880Z,32.68
2019-04-21T20:00:52.445Z,32.76
2019-04-21T20:03:26.291Z,33.26
2019-04-21T20:06:10.786Z,33.28
2019-04-21T20:09:17.830Z,32.82
2019-04-21T20:11:52.510Z,33.07
2019-04-21T20:14:50.991Z,33.09
2019-04-21T20:16:59.307Z,33.01
2019-04-21T20:19:22.938Z,32.85
2019-04-21T20:21:57.049Z,32.63
2019-04-21T20:24:33.658Z,33.08
2019-04-21T20:27:15.031Z,33.09
2019-04-21T20:29:57.524Z,33.16
2019-04-21T20:32:34.726Z,33.14
2019-04-21T20:35:30.784Z,33.08
2019-04-21T20:37:42.346Z,33.16
2019-04-21T20:40:05.165Z,33.31
2019-04-21T20:42:47.012Z,33.32
2019-04-21T20:45:49.377Z,33.55
2019-04-21T20:47:54.007Z,33.08
2019-04-21T20:50:37.936Z,33.32
2019-04-21T20:53:17.908Z,33.07
2019-04-21T20:55:48.975Z,33.42
2019-04-21T20:58:28.460Z,33.42
2019-04-21T21:01:21.931Z,33.47
2019-04-21T21:03:39.400Z,33.40
2019-04-21T21:06:15.817Z,33.41
2019-04-21T21:08:50.186Z,33.67
2019-04-21T21:11:26.046Z,33.84
2019-04-21T21:13:58.714Z,33.71
2019-04-21T21:16:44.694Z,33.42
2019-04-21T21:19:18.517Z,33.83
2019-04-21T21:21:44.223Z,33.54
2019-04-21T21:24:22.240Z,33.61
2019-04-21T21:27:03.865Z,33.85
2019-04-21T21:29:45.344Z,33.78
2019-04-21T21:32:16.238Z,33.92
2019-04-21T21:34:47.433Z,33.96
2019-04-21T21:37:26.843Z,34.19
2019-04-21T21:39:58.410Z,33.95
2019-04-21T21:42:09.870Z,34.31
2019-04-21T21:44:51.771Z,34.27
2019-04-21T21:47:37.580Z,34.44
2019-04-21T21:50:07.702Z,34.49
2019-04-21T21:52:42.429Z,34.88
2019-04-21T21:55:05.634Z,34.86
2019-04-21T21:57:44.362Z,34.90
2019-04-21T22:00:17.112Z,35.03
2019-04-21T22:02:55.025Z,35.03
2019-04-21T22:05:33.123Z,34.96
2019-04-21T22:08:04.726Z,35.03
2019-04-21T22:10:39.166Z,35.35
2019-04-21T22:13:17.580Z,35.64
2019-04-21T22:16:00.377Z,35.81
2019-04-21T22:18:39.119Z,35.91
2019-04-21T22:21:09.951Z,36.04
2019-04-21T22:23:43.745Z,36.08
2019-04-21T22:26:13.509Z,36.45
2019-04-21T22:28:47.624Z,36.59
2019-04-21T22:31:28.418Z,36.88
2019-04-21T22:34:03.808Z,37.23
2019-04-21T22:36:44.812Z,37.41
2019-04-21T22:39:31.689Z,37.54
2019-04-21T22:41:49.222Z,37.77
2019-04-21T22:44:22.595Z,38.11
2019-04-21T22:47:07.222Z,38.37
2019-04-21T22:49:32.344Z,38.69
2019-04-21T22:52:15.146Z,39.15
2019-04-21T22:54:46.658Z,39.09
2019-04-21T22:57:23.057Z,39.15
2019-04-21T23:00:00.926Z,39.79
2019-04-21T23:02:33.245Z,39.95
2019-04-21T23:05:05.959Z,40.43
2019-04-21T23:07:41.443Z,40.40
2019-04-21T23:10:14.763Z,40.77
2019-04-21T23:12:52.054Z,41.00
2019-04-21T23:15:37.249Z,41.62
2019-04-21T23:18:22.056Z,41.62
2019-04-21T23:21:00.428Z,42.27
2019-04-21T23:23:38.395Z,42.35
2019-04-21T23:26:09.151Z,42.66
2019-04-21T23:28:45.498Z,42.78
2019-04-21T23:31:18.318Z,43.28
2019-04-21T23:33:34.623Z,43.32
2019-04-21T23:36:13.723Z,43.79
2019-04-21T23:38:46.221Z,43.89
2019-04-21T23:41:17.720Z,44.21
2019-04-21T23:43:59.382Z,44.46
2019-04-21T23:46:31.290Z,44.56
2019-04-21T23:49:17.942Z,44.68
2019-04-21T23:51:45.187Z,44.77
2019-04-21T23:54:11.495Z,44.98
2019-04-21T23:56:47.591Z,45.33
2019-04-21T23:59:20.568Z,45.67
